Darstellungsparameter: Aktuell verwendete Einstellungen:
Skalierung der Graphiken ... ?
xyx+y,   Skalierungsfaktor:      Skalierung: Modus: x, Faktor: 1
Darstellungszeitraum ... ?
Vom - - bis: - -   Zeitraum: 04.08.2019 - 03.09.2019
Min/Max/Avg-Anzeige ... ?
Zeige MMA aktuell
Zeige MMA Monat
Zeige MMA alles
Zeige --A aktuell
Zeige --A Monat
Zeige --A alles
Keine MMA-Anzeige
MMA:
Keine MMA-Graphiken
MMA-Basis: 04.08.2019 - 03.09.2019
Quicknavigation für Darstellung... ?
Tage:      1T, 2T, 3T, 5T -1T -2T -3T -5T +1T +2T +3T +5T
Wochen: 1W, 2W, 3W -1W -2W -3W +1W +2W +3W
Monate: 1M, 3M, 6M -1M -3M -6M +1M +3M +6M
Jahre:    1J, 3J, 5J, 10J -1J -3J -5J -10J +1J +3J +5J +10J
Nutze für die Darstellung ... ?
Originaldaten oder ...
Mittelwerte Minima Maxima auf...
Stundenbasis Tagesbasis Wochenbasis
Monatsbasis Jahresbasis      Datenbasis: Mittelwerte auf Stundenbasis
Darstellen als:
Statistik (Auto) Statistik J:M      Darstellung:
Zur Graphik,    zurück zur Übersicht aller Sensoren.
 
Tabellarische Datenbersicht: ?
 
Sensor: Nr:Datum:Temp:Feuchte:Taupunkt:
Aussen-T/F 1 04-08-2019 00:00:00 16.225 C 81.8333 % 13.12 C
2 04-08-2019 01:00:00 15.125 C 85.5000 % 12.71 C
3 04-08-2019 02:00:00 14 C 88.7500 % 12.17 C
4 04-08-2019 03:00:00 13.3 C 90.9167 % 11.85 C
5 04-08-2019 04:00:00 12.88333 C 92.0833 % 11.63 C
6 04-08-2019 05:00:00 12.49167 C 93.0000 % 11.39 C
7 04-08-2019 06:00:00 12.34167 C 93.8333 % 11.38 C
8 04-08-2019 07:00:00 12.725 C 94.4167 % 11.85 C
9 04-08-2019 08:00:00 13.73333 C 95.0000 % 12.95 C
10 04-08-2019 09:00:00 15.34167 C 93.0833 % 14.23 C
11 04-08-2019 10:00:00 18.10833 C 83.3333 % 15.24 C
12 04-08-2019 11:00:00 21.31667 C 67.5000 % 15.06 C
13 04-08-2019 12:00:00 23.3 C 59.5000 % 14.97 C
14 04-08-2019 13:00:00 24.75 C 53.6667 % 14.72 C
15 04-08-2019 14:00:00 25.86667 C 48.5833 % 14.21 C
16 04-08-2019 15:00:00 28.225 C 40.6667 % 13.6 C
17 04-08-2019 16:00:00 30.03333 C 34.5000 % 12.68 C
18 04-08-2019 17:00:00 30.95833 C 32.0833 % 12.38 C
19 04-08-2019 18:00:00 30.79167 C 33.7500 % 13.01 C
20 04-08-2019 19:00:00 28.75833 C 41.6667 % 14.45 C
21 04-08-2019 20:00:00 25.78333 C 51.9167 % 15.16 C
22 04-08-2019 21:00:00 22.51667 C 60.3333 % 14.45 C
23 04-08-2019 22:00:00 21.95833 C 63.6667 % 14.76 C
24 04-08-2019 23:00:00 22.39167 C 61.2500 % 14.57 C
25 05-08-2019 00:00:00 22.875 C 57.8333 % 14.13 C
Sensor: Nr:Datum:Temp:Feuchte:Taupunkt:
Aussen-T/F 26 05-08-2019 01:00:00 21.65833 C 62.4167 % 14.17 C
27 05-08-2019 02:00:00 20.28333 C 66.8333 % 13.92 C
28 05-08-2019 03:00:00 19.6 C 69.6667 % 13.91 C
29 05-08-2019 04:00:00 19.31667 C 75.7500 % 14.93 C
30 05-08-2019 05:00:00 19.325 C 78.0000 % 15.39 C
31 05-08-2019 06:00:00 18.28333 C 87.3333 % 16.14 C
32 05-08-2019 07:00:00 17.53333 C 92.3333 % 16.28 C
33 05-08-2019 08:00:00 17.64167 C 94.5000 % 16.75 C
34 05-08-2019 09:00:00 18.75 C 94.9167 % 17.92 C
35 05-08-2019 10:00:00 20.08333 C 92.5833 % 18.84 C
36 05-08-2019 11:00:00 21.99167 C 84.0833 % 19.18 C
37 05-08-2019 12:00:00 24.25 C 68.7500 % 18.14 C
38 05-08-2019 13:00:00 26 C 59.7500 % 17.57 C
39 05-08-2019 14:00:00 27.11667 C 54.6667 % 17.2 C
40 05-08-2019 15:00:00 28.375 C 46.5000 % 15.81 C
41 05-08-2019 16:00:00 28.875 C 41.3333 % 14.43 C
42 05-08-2019 17:00:00 28.225 C 42.0833 % 14.13 C
43 05-08-2019 18:00:00 27.7 C 42.1667 % 13.68 C
44 05-08-2019 19:00:00 26.7 C 46.4167 % 14.26 C
45 05-08-2019 20:00:00 25.1 C 53.5833 % 15.02 C
46 05-08-2019 21:00:00 22.075 C 61.1667 % 14.25 C
47 05-08-2019 22:00:00 20.53333 C 69.3333 % 14.73 C
48 05-08-2019 23:00:00 19.28333 C 74.0000 % 14.54 C
49 06-08-2019 00:00:00 18.00833 C 78.2500 % 14.17 C
50 06-08-2019 01:00:00 17.10833 C 81.4167 % 13.9 C
Sensor: Nr:Datum:Temp:Feuchte:Taupunkt:
Aussen-T/F 51 06-08-2019 02:00:00 17.00833 C 82.9167 % 14.09 C
52 06-08-2019 03:00:00 17.45833 C 83.0833 % 14.56 C
53 06-08-2019 04:00:00 17.20833 C 83.8333 % 14.45 C
54 06-08-2019 05:00:00 16.60833 C 85.6667 % 14.2 C
55 06-08-2019 06:00:00 16.66667 C 86.5833 % 14.42 C
56 06-08-2019 07:00:00 17.83333 C 83.2500 % 14.95 C
57 06-08-2019 08:00:00 18.675 C 81.0833 % 15.37 C
58 06-08-2019 09:00:00 20.1 C 76.5000 % 15.84 C
59 06-08-2019 10:00:00 19.91667 C 83.7500 % 17.09 C
60 06-08-2019 11:00:00 19.65 C 89.1667 % 17.82 C
61 06-08-2019 12:00:00 21.31667 C 82.2500 % 18.17 C
62 06-08-2019 13:00:00 22.325 C 77.4167 % 18.18 C
63 06-08-2019 14:00:00 23.61667 C 69.8333 % 17.79 C
64 06-08-2019 15:00:00 24.725 C 64.7500 % 17.64 C
65 06-08-2019 16:00:00 25.39167 C 61.9167 % 17.56 C
66 06-08-2019 17:00:00 26.4 C 57.5000 % 17.33 C
67 06-08-2019 18:00:00 25.20833 C 61.8333 % 17.37 C
68 06-08-2019 19:00:00 22.54167 C 76.7500 % 18.25 C
69 06-08-2019 20:00:00 19.05 C 90.4167 % 17.44 C
70 06-08-2019 21:00:00 18.00833 C 93.1667 % 16.89 C
71 06-08-2019 22:00:00 17.51667 C 94.0000 % 16.54 C
72 06-08-2019 23:00:00 17.08333 C 94.9167 % 16.26 C
73 07-08-2019 00:00:00 16.68333 C 95.0000 % 15.88 C
74 07-08-2019 01:00:00 16.3 C 95.5000 % 15.58 C
75 07-08-2019 02:00:00 16.45833 C 96.0000 % 15.82 C
Sensor: Nr:Datum:Temp:Feuchte:Taupunkt:
Aussen-T/F 76 07-08-2019 03:00:00 16.58333 C 96.2500 % 15.98 C
77 07-08-2019 04:00:00 16.63333 C 97.0000 % 16.15 C
78 07-08-2019 05:00:00 16.66667 C 97.0000 % 16.19 C
79 07-08-2019 06:00:00 16.875 C 97.0000 % 16.4 C
80 07-08-2019 07:00:00 17.25 C 97.0000 % 16.77 C
81 07-08-2019 08:00:00 17.75833 C 97.0000 % 17.28 C
82 07-08-2019 09:00:00 18.25 C 97.0000 % 17.77 C
83 07-08-2019 10:00:00 18.96667 C 96.4167 % 18.38 C
84 07-08-2019 11:00:00 19.725 C 93.0833 % 18.57 C
85 07-08-2019 12:00:00 20.83333 C 84.5000 % 18.12 C
86 07-08-2019 13:00:00 21.85833 C 76.3333 % 17.51 C
87 07-08-2019 14:00:00 22.525 C 75.3333 % 17.94 C
88 07-08-2019 15:00:00 22.59167 C 72.9167 % 17.49 C
89 07-08-2019 16:00:00 22.08333 C 72.8333 % 16.98 C
90 07-08-2019 17:00:00 22.53333 C 71.2500 % 17.07 C
91 07-08-2019 18:00:00 23.35833 C 68.4167 % 17.21 C
92 07-08-2019 19:00:00 22.38333 C 73.7500 % 17.47 C
93 07-08-2019 20:00:00 20.05833 C 83.5000 % 17.18 C
94 07-08-2019 21:00:00 18.05 C 86.7500 % 15.81 C
95 07-08-2019 22:00:00 16.74167 C 89.7500 % 15.05 C
96 07-08-2019 23:00:00 16.64167 C 89.1667 % 14.85 C
97 08-08-2019 00:00:00 15.76667 C 91.4167 % 14.37 C
98 08-08-2019 01:00:00 16.35 C 92.0000 % 15.05 C
99 08-08-2019 02:00:00 16.45 C 92.0000 % 15.15 C
100 08-08-2019 03:00:00 16.44167 C 91.9167 % 15.12 C
Sensor: Nr:Datum:Temp:Feuchte:Taupunkt:
Aussen-T/F 101 08-08-2019 04:00:00 16.06667 C 92.6667 % 14.88 C
102 08-08-2019 05:00:00 15.31667 C 93.2500 % 14.23 C
103 08-08-2019 06:00:00 15.7 C 94.0000 % 14.74 C
104 08-08-2019 07:00:00 15.95 C 93.5833 % 14.92 C
105 08-08-2019 08:00:00 17.05833 C 91.1667 % 15.61 C
106 08-08-2019 09:00:00 18.55833 C 84.0833 % 15.82 C
107 08-08-2019 10:00:00 20.05833 C 73.0000 % 15.07 C
108 08-08-2019 11:00:00 21.74167 C 65.7500 % 15.05 C
109 08-08-2019 12:00:00 22.99167 C 61.1667 % 15.11 C
110 08-08-2019 13:00:00 24.025 C 57.4167 % 15.1 C
111 08-08-2019 14:00:00 24.20833 C 57.3333 % 15.24 C
112 08-08-2019 15:00:00 24.51667 C 57.1667 % 15.49 C
113 08-08-2019 16:00:00 26.58333 C 51.4167 % 15.74 C
114 08-08-2019 17:00:00 27.18333 C 48.1667 % 15.28 C
115 08-08-2019 18:00:00 27.46667 C 47.3333 % 15.26 C
116 08-08-2019 19:00:00 25.43333 C 62.0833 % 17.64 C
117 08-08-2019 20:00:00 23.575 C 67.5833 % 17.23 C
118 08-08-2019 21:00:00 20.625 C 76.4167 % 16.33 C
119 08-08-2019 22:00:00 19.15833 C 83.1667 % 16.23 C
120 08-08-2019 23:00:00 18.16667 C 87.5000 % 16.06 C
121 09-08-2019 00:00:00 17.15833 C 89.4167 % 15.4 C
122 09-08-2019 01:00:00 16.25833 C 91.2500 % 14.83 C
123 09-08-2019 02:00:00 15.875 C 92.0000 % 14.58 C
124 09-08-2019 03:00:00 15.21667 C 92.7500 % 14.05 C
125 09-08-2019 04:00:00 14.725 C 93.6667 % 13.71 C
Sensor: Nr:Datum:Temp:Feuchte:Taupunkt:
Aussen-T/F 126 09-08-2019 05:00:00 14.44167 C 94.0833 % 13.5 C
127 09-08-2019 06:00:00 14.56667 C 95.0000 % 13.78 C
128 09-08-2019 07:00:00 15.40833 C 95.3333 % 14.67 C
129 09-08-2019 08:00:00 16.44167 C 93.1667 % 15.33 C
130 09-08-2019 09:00:00 18.26667 C 87.8333 % 16.22 C
131 09-08-2019 10:00:00 20.60833 C 80.7500 % 17.18 C
132 09-08-2019 11:00:00 23.8 C 71.5833 % 18.35 C
133 09-08-2019 12:00:00 25.26667 C 65.8333 % 18.42 C
134 09-08-2019 13:00:00 25.275 C 66.4167 % 18.57 C
135 09-08-2019 14:00:00 24.75 C 77.3333 % 20.51 C
136 09-08-2019 15:00:00 24.43333 C 82.0833 % 21.17 C
137 09-08-2019 16:00:00 27.25 C 69.9167 % 21.28 C
138 09-08-2019 17:00:00 25.45 C 81.5000 % 22.05 C
139 09-08-2019 18:00:00 22.78333 C 88.9167 % 20.86 C
140 09-08-2019 19:00:00 21.5 C 93.0833 % 20.33 C
141 09-08-2019 20:00:00 19.63333 C 94.0833 % 18.65 C
142 09-08-2019 21:00:00 19.31667 C 95.5000 % 18.58 C
143 09-08-2019 22:00:00 19.30833 C 96.0000 % 18.65 C
144 09-08-2019 23:00:00 18.86667 C 96.0000 % 18.21 C
145 10-08-2019 00:00:00 18.775 C 96.5833 % 18.22 C
146 10-08-2019 01:00:00 18.73333 C 96.9167 % 18.23 C
147 10-08-2019 02:00:00 18.50833 C 97.0000 % 18.02 C
148 10-08-2019 03:00:00 18.29167 C 97.0000 % 17.81 C
149 10-08-2019 04:00:00 18.11667 C 97.0000 % 17.63 C
150 10-08-2019 05:00:00 17.53333 C 97.0000 % 17.05 C
Sensor: Nr:Datum:Temp:Feuchte:Taupunkt:
Aussen-T/F 151 10-08-2019 06:00:00 17.45 C 97.0000 % 16.97 C
152 10-08-2019 07:00:00 17.33333 C 97.0000 % 16.85 C
153 10-08-2019 08:00:00 17.41667 C 95.0833 % 16.62 C
154 10-08-2019 09:00:00 19.125 C 86.0000 % 16.73 C
155 10-08-2019 10:00:00 20.36667 C 79.5000 % 16.7 C
156 10-08-2019 11:00:00 21.43333 C 74.3333 % 16.68 C
157 10-08-2019 12:00:00 22.38333 C 69.0000 % 16.42 C
158 10-08-2019 13:00:00 23.26667 C 63.4167 % 15.93 C
159 10-08-2019 14:00:00 23.83333 C 60.7500 % 15.8 C
160 10-08-2019 15:00:00 24.99167 C 55.4167 % 15.44 C
161 10-08-2019 16:00:00 25.24167 C 53.5000 % 15.13 C
162 10-08-2019 17:00:00 26.29167 C 49.2500 % 14.81 C
163 10-08-2019 18:00:00 25.99167 C 49.0833 % 14.48 C
164 10-08-2019 19:00:00 25.00833 C 49.6667 % 13.76 C
165 10-08-2019 20:00:00 22.63333 C 61.2500 % 14.79 C
166 10-08-2019 21:00:00 19.41667 C 72.6667 % 14.38 C
167 10-08-2019 22:00:00 17.71667 C 78.7500 % 13.98 C
168 10-08-2019 23:00:00 16.45833 C 82.0000 % 13.38 C
169 11-08-2019 00:00:00 15.75833 C 84.8333 % 13.21 C
170 11-08-2019 01:00:00 15.375 C 87.3333 % 13.28 C
171 11-08-2019 02:00:00 15.7 C 86.5000 % 13.45 C
172 11-08-2019 03:00:00 15.20833 C 86.5000 % 12.97 C
173 11-08-2019 04:00:00 14.43333 C 88.3333 % 12.53 C
174 11-08-2019 05:00:00 13.58333 C 90.1667 % 12 C
175 11-08-2019 06:00:00 13.40833 C 92.6667 % 12.25 C
Sensor: Nr:Datum:Temp:Feuchte:Taupunkt:
Aussen-T/F 176 11-08-2019 07:00:00 14.04167 C 92.2500 % 12.8 C
177 11-08-2019 08:00:00 14.9 C 91.3333 % 13.5 C
178 11-08-2019 09:00:00 16.21667 C 87.0833 % 14.07 C
179 11-08-2019 10:00:00 19.375 C 69.7500 % 13.71 C
180 11-08-2019 11:00:00 21.26667 C 59.2500 % 13 C
181 11-08-2019 12:00:00 22.09167 C 55.8333 % 12.86 C
182 11-08-2019 13:00:00 22.775 C 51.0833 % 12.14 C
183 11-08-2019 14:00:00 22.89167 C 52.5833 % 12.69 C
184 11-08-2019 15:00:00 21.50833 C 61.3333 % 13.76 C
185 11-08-2019 16:00:00 20.05 C 70.0000 % 14.41 C
186 11-08-2019 17:00:00 17.18333 C 86.8333 % 14.97 C
187 11-08-2019 18:00:00 16.475 C 90.4167 % 14.9 C
188 11-08-2019 19:00:00 16.075 C 89.6667 % 14.38 C
189 11-08-2019 20:00:00 15.775 C 91.0000 % 14.31 C
190 11-08-2019 21:00:00 15.23333 C 91.7500 % 13.9 C
191 11-08-2019 22:00:00 14.3 C 91.8333 % 12.99 C
192 11-08-2019 23:00:00 14.24167 C 93.3333 % 13.18 C
193 12-08-2019 00:00:00 14.85833 C 92.5833 % 13.67 C
194 12-08-2019 01:00:00 14.325 C 92.0833 % 13.06 C
195 12-08-2019 02:00:00 13.66667 C 93.4167 % 12.62 C
196 12-08-2019 03:00:00 13.125 C 94.0000 % 12.18 C
197 12-08-2019 04:00:00 12.89167 C 95.0000 % 12.11 C
198 12-08-2019 05:00:00 12.675 C 95.0000 % 11.9 C
199 12-08-2019 06:00:00 12.69167 C 95.5833 % 12 C
200 12-08-2019 07:00:00 13.05833 C 96.0000 % 12.44 C
Sensor: Nr:Datum:Temp:Feuchte:Taupunkt:
Aussen-T/F 201 12-08-2019 08:00:00 13.5 C 96.0000 % 12.87 C
202 12-08-2019 09:00:00 15.05 C 92.5833 % 13.86 C
203 12-08-2019 10:00:00 17.65 C 82.5000 % 14.63 C
204 12-08-2019 11:00:00 20.08333 C 72.5833 % 15.01 C
205 12-08-2019 12:00:00 21.275 C 65.6667 % 14.59 C
206 12-08-2019 13:00:00 21.775 C 60.7500 % 13.86 C
207 12-08-2019 14:00:00 22.55 C 60.2500 % 14.46 C
208 12-08-2019 15:00:00 23.475 C 55.5833 % 14.08 C
209 12-08-2019 16:00:00 22.54167 C 58.5000 % 14 C
210 12-08-2019 17:00:00 17.89167 C 77.2500 % 13.85 C
211 12-08-2019 18:00:00 15.925 C 90.0000 % 14.29 C
212 12-08-2019 19:00:00 15.925 C 92.0000 % 14.63 C
213 12-08-2019 20:00:00 15.54167 C 92.1667 % 14.28 C
214 12-08-2019 21:00:00 15.19167 C 93.5833 % 14.16 C
215 12-08-2019 22:00:00 14.975 C 94.0000 % 14.02 C
216 12-08-2019 23:00:00 14.01667 C 92.6667 % 12.85 C
217 13-08-2019 00:00:00 13.55833 C 94.2500 % 12.65 C
218 13-08-2019 01:00:00 13.025 C 94.2500 % 12.12 C
219 13-08-2019 02:00:00 12.83333 C 95.2500 % 12.09 C
220 13-08-2019 03:00:00 12.9 C 95.5833 % 12.21 C
221 13-08-2019 04:00:00 13.275 C 95.8333 % 12.62 C
222 13-08-2019 05:00:00 13.18333 C 95.0000 % 12.4 C
223 13-08-2019 06:00:00 12.75 C 95.1667 % 12 C
224 13-08-2019 07:00:00 12.9 C 95.2500 % 12.16 C
225 13-08-2019 08:00:00 13.39167 C 92.7500 % 12.24 C
Sensor: Nr:Datum:Temp:Feuchte:Taupunkt:
Aussen-T/F 226 13-08-2019 09:00:00 14.85 C 86.8333 % 12.68 C
227 13-08-2019 10:00:00 16.225 C 74.6667 % 11.72 C
228 13-08-2019 11:00:00 17.175 C 67.2500 % 11.06 C
229 13-08-2019 12:00:00 18.13333 C 63.4167 % 11.08 C
230 13-08-2019 13:00:00 19.025 C 55.6667 % 9.97 C
231 13-08-2019 14:00:00 19.875 C 52.8333 % 9.97 C
232 13-08-2019 15:00:00 21.275 C 50.3333 % 10.54 C
233 13-08-2019 16:00:00 21.38333 C 50.9167 % 10.81 C
234 13-08-2019 17:00:00 21.25833 C 50.5000 % 10.57 C
235 13-08-2019 18:00:00 21.175 C 51.8333 % 10.89 C
236 13-08-2019 19:00:00 18.53333 C 64.7500 % 11.78 C
237 13-08-2019 20:00:00 14.91667 C 86.6667 % 12.71 C
238 13-08-2019 21:00:00 13.99167 C 91.3333 % 12.6 C
239 13-08-2019 22:00:00 13.63333 C 92.5833 % 12.45 C
240 13-08-2019 23:00:00 13.36667 C 93.0000 % 12.26 C
241 14-08-2019 00:00:00 13.05 C 93.0833 % 11.96 C
242 14-08-2019 01:00:00 12.61667 C 93.1667 % 11.54 C
243 14-08-2019 02:00:00 12.10833 C 93.1667 % 11.04 C
244 14-08-2019 03:00:00 11.93333 C 94.0000 % 11 C
245 14-08-2019 04:00:00 11.43333 C 94.0833 % 10.52 C
246 14-08-2019 05:00:00 11.00833 C 95.0000 % 10.24 C
247 14-08-2019 06:00:00 10.61667 C 95.1667 % 9.88 C
248 14-08-2019 07:00:00 10.61667 C 96.0000 % 10.01 C
249 14-08-2019 08:00:00 11.4 C 96.3333 % 10.84 C
250 14-08-2019 09:00:00 13.28333 C 93.5000 % 12.26 C
Sensor: Nr:Datum:Temp:Feuchte:Taupunkt:
Aussen-T/F 251 14-08-2019 10:00:00 14.26667 C 91.8333 % 12.96 C
252 14-08-2019 11:00:00 15.66667 C 83.2500 % 12.84 C
253 14-08-2019 12:00:00 18.1 C 62.7500 % 10.89 C
254 14-08-2019 13:00:00 19.59167 C 55.0000 % 10.31 C
255 14-08-2019 14:00:00 21.08333 C 50.1667 % 10.31 C
256 14-08-2019 15:00:00 22.60833 C 49.2500 % 11.44 C
257 14-08-2019 16:00:00 23.74167 C 46.2500 % 11.52 C
258 14-08-2019 17:00:00 24.44167 C 44.7500 % 11.66 C
259 14-08-2019 18:00:00 24 C 46.7500 % 11.92 C
260 14-08-2019 19:00:00 22.31667 C 56.5000 % 13.25 C
261 14-08-2019 20:00:00 19.675 C 67.5833 % 13.51 C
262 14-08-2019 21:00:00 18.1 C 74.0833 % 13.41 C
263 14-08-2019 22:00:00 17.63333 C 76.1667 % 13.39 C
264 14-08-2019 23:00:00 17.4 C 76.5000 % 13.23 C
265 15-08-2019 00:00:00 17.35833 C 76.5833 % 13.21 C
266 15-08-2019 01:00:00 17.38333 C 77.5000 % 13.41 C
267 15-08-2019 02:00:00 16.2 C 88.4167 % 14.28 C
268 15-08-2019 03:00:00 15.275 C 92.4167 % 14.05 C
269 15-08-2019 04:00:00 14.90833 C 93.6667 % 13.9 C
270 15-08-2019 05:00:00 14.84167 C 94.1667 % 13.91 C
271 15-08-2019 06:00:00 14.96667 C 94.8333 % 14.15 C
272 15-08-2019 07:00:00 15.6 C 92.3333 % 14.36 C
273 15-08-2019 08:00:00 17.59167 C 83.9167 % 14.84 C
274 15-08-2019 09:00:00 18.48333 C 81.5000 % 15.26 C
275 15-08-2019 10:00:00 19.14167 C 81.0000 % 15.8 C
Sensor: Nr:Datum:Temp:Feuchte:Taupunkt:
Aussen-T/F 276 15-08-2019 11:00:00 19.28333 C 81.5833 % 16.05 C
277 15-08-2019 12:00:00 19.90833 C 79.6667 % 16.29 C
278 15-08-2019 13:00:00 18.94167 C 88.6667 % 17.03 C
279 15-08-2019 14:00:00 19.73333 C 86.0000 % 17.32 C
280 15-08-2019 15:00:00 20.79167 C 81.3333 % 17.48 C
281 15-08-2019 16:00:00 19.325 C 89.5833 % 17.57 C
282 15-08-2019 17:00:00 17.3 C 92.9167 % 16.14 C
283 15-08-2019 18:00:00 16.975 C 94.1667 % 16.03 C
284 15-08-2019 19:00:00 17.25 C 94.5833 % 16.37 C
285 15-08-2019 20:00:00 17.09167 C 94.5833 % 16.22 C
286 15-08-2019 21:00:00 16.40833 C 94.7500 % 15.56 C
287 15-08-2019 22:00:00 15.93333 C 94.5833 % 15.06 C
288 15-08-2019 23:00:00 15.54167 C 95.0000 % 14.74 C
289 16-08-2019 00:00:00 15.29167 C 95.0833 % 14.51 C
290 16-08-2019 01:00:00 14.63333 C 95.2500 % 13.88 C
291 16-08-2019 02:00:00 14.575 C 96.0000 % 13.94 C
292 16-08-2019 03:00:00 14.64167 C 96.0000 % 14.01 C
293 16-08-2019 04:00:00 14.08333 C 96.0000 % 13.46 C
294 16-08-2019 05:00:00 13.575 C 96.2500 % 12.99 C
295 16-08-2019 06:00:00 13.69167 C 97.0000 % 13.22 C
296 16-08-2019 07:00:00 14.18333 C 96.5833 % 13.65 C
297 16-08-2019 08:00:00 14.45833 C 95.0833 % 13.68 C
298 16-08-2019 09:00:00 15.54167 C 89.7500 % 13.87 C
299 16-08-2019 10:00:00 16.26667 C 85.7500 % 13.88 C
300 16-08-2019 11:00:00 17.1 C 82.4167 % 14.08 C
Sensor: Nr:Datum:Temp:Feuchte:Taupunkt:
Aussen-T/F 301 16-08-2019 12:00:00 18.43333 C 76.4167 % 14.21 C
302 16-08-2019 13:00:00 19.65 C 70.7500 % 14.19 C
303 16-08-2019 14:00:00 20.4 C 67.6667 % 14.22 C
304 16-08-2019 15:00:00 21.90833 C 61.0000 % 14.05 C
305 16-08-2019 16:00:00 23.63333 C 54.5000 % 13.92 C
306 16-08-2019 17:00:00 24.475 C 51.8333 % 13.93 C
307 16-08-2019 18:00:00 24.43333 C 52.0833 % 13.96 C
308 16-08-2019 19:00:00 23.41667 C 58.1667 % 14.73 C
309 16-08-2019 20:00:00 20.075 C 71.5833 % 14.78 C
310 16-08-2019 21:00:00 17.75833 C 80.3333 % 14.33 C
311 16-08-2019 22:00:00 16.88333 C 84.8333 % 14.32 C
312 16-08-2019 23:00:00 16.23333 C 86.5833 % 13.99 C
313 17-08-2019 00:00:00 15.69167 C 87.8333 % 13.68 C
314 17-08-2019 01:00:00 15.86667 C 88.2500 % 13.93 C
315 17-08-2019 02:00:00 15.76667 C 88.6667 % 13.9 C
316 17-08-2019 03:00:00 15.76667 C 91.0833 % 14.32 C
317 17-08-2019 04:00:00 15.69167 C 93.2500 % 14.6 C
318 17-08-2019 05:00:00 15.63333 C 94.0000 % 14.67 C
319 17-08-2019 06:00:00 15.65833 C 94.0000 % 14.7 C
320 17-08-2019 07:00:00 16.13333 C 94.0000 % 15.17 C
321 17-08-2019 08:00:00 16.95833 C 90.7500 % 15.44 C
322 17-08-2019 09:00:00 18.66667 C 80.1667 % 15.18 C
323 17-08-2019 10:00:00 19.01667 C 81.0833 % 15.7 C
324 17-08-2019 11:00:00 18.59167 C 86.8333 % 16.36 C
325 17-08-2019 12:00:00 19.275 C 85.1667 % 16.72 C
Sensor: Nr:Datum:Temp:Feuchte:Taupunkt:
Aussen-T/F 326 17-08-2019 13:00:00 20.68333 C 76.3333 % 16.37 C
327 17-08-2019 14:00:00 21 C 74.9167 % 16.38 C
328 17-08-2019 15:00:00 21.31667 C 74.8333 % 16.67 C
329 17-08-2019 16:00:00 21 C 75.9167 % 16.59 C
330 17-08-2019 17:00:00 20.44167 C 77.9167 % 16.46 C
331 17-08-2019 18:00:00 19.975 C 83.0833 % 17.02 C
332 17-08-2019 19:00:00 19.125 C 88.2500 % 17.13 C
333 17-08-2019 20:00:00 18.325 C 91.0833 % 16.84 C
334 17-08-2019 21:00:00 17.84167 C 92.6667 % 16.64 C
335 17-08-2019 22:00:00 17.74167 C 94.0000 % 16.76 C
336 17-08-2019 23:00:00 17.525 C 94.6667 % 16.66 C
337 18-08-2019 00:00:00 17.4 C 95.0000 % 16.59 C
338 18-08-2019 01:00:00 17.38333 C 95.5833 % 16.67 C
339 18-08-2019 02:00:00 17.225 C 96.0000 % 16.58 C
340 18-08-2019 03:00:00 17.2 C 96.0000 % 16.56 C
341 18-08-2019 04:00:00 17.18333 C 96.0000 % 16.54 C
342 18-08-2019 05:00:00 17.3 C 96.7500 % 16.78 C
343 18-08-2019 06:00:00 17.26667 C 97.0000 % 16.79 C
344 18-08-2019 07:00:00 17.34167 C 97.0000 % 16.86 C
345 18-08-2019 08:00:00 17.93333 C 97.0000 % 17.45 C
346 18-08-2019 09:00:00 18.85833 C 97.2500 % 18.41 C
347 18-08-2019 10:00:00 19.93333 C 97.4167 % 19.51 C
348 18-08-2019 11:00:00 22.19167 C 92.0833 % 20.84 C
349 18-08-2019 12:00:00 24.075 C 77.7500 % 19.95 C
350 18-08-2019 13:00:00 24.4 C 75.8333 % 19.86 C
Sensor: Nr:Datum:Temp:Feuchte:Taupunkt:
Aussen-T/F 351 18-08-2019 14:00:00 24.725 C 74.8333 % 19.96 C
352 18-08-2019 15:00:00 24.7 C 75.8333 % 20.15 C
353 18-08-2019 16:00:00 24.99167 C 72.7500 % 19.76 C
354 18-08-2019 17:00:00 24.35 C 72.7500 % 19.14 C
355 18-08-2019 18:00:00 20.49167 C 91.6667 % 19.09 C
356 18-08-2019 19:00:00 20.00833 C 93.8333 % 18.98 C
357 18-08-2019 20:00:00 19.45833 C 94.6667 % 18.58 C
358 18-08-2019 21:00:00 18.8 C 94.3333 % 17.87 C
359 18-08-2019 22:00:00 17.65 C 94.5000 % 16.76 C
360 18-08-2019 23:00:00 16.59167 C 95.0000 % 15.79 C
361 19-08-2019 00:00:00 16.14167 C 96.0000 % 15.5 C
362 19-08-2019 01:00:00 16.10833 C 96.0000 % 15.47 C
363 19-08-2019 02:00:00 15.81667 C 96.0000 % 15.18 C
364 19-08-2019 03:00:00 15.38333 C 96.0833 % 14.76 C
365 19-08-2019 04:00:00 14.78333 C 96.1667 % 14.18 C
366 19-08-2019 05:00:00 15.125 C 97.0000 % 14.65 C
367 19-08-2019 06:00:00 14.61667 C 96.8333 % 14.12 C
368 19-08-2019 07:00:00 15.025 C 97.1667 % 14.58 C
369 19-08-2019 08:00:00 15.65833 C 97.0000 % 15.18 C
370 19-08-2019 09:00:00 15.89167 C 96.5833 % 15.35 C
371 19-08-2019 10:00:00 16.63333 C 87.6667 % 14.58 C
372 19-08-2019 11:00:00 18.55833 C 74.7500 % 13.99 C
373 19-08-2019 12:00:00 20.275 C 64.5000 % 13.37 C
374 19-08-2019 13:00:00 21.525 C 58.3333 % 13 C
375 19-08-2019 14:00:00 22.79167 C 53.8333 % 12.96 C
Sensor: Nr:Datum:Temp:Feuchte:Taupunkt:
Aussen-T/F 376 19-08-2019 15:00:00 23.46667 C 50.6667 % 12.65 C
377 19-08-2019 16:00:00 23.78333 C 50.6667 % 12.94 C
378 19-08-2019 17:00:00 24.025 C 48.4167 % 12.47 C
379 19-08-2019 18:00:00 23.51667 C 50.5000 % 12.65 C
380 19-08-2019 19:00:00 22.95833 C 56.3333 % 13.81 C
381 19-08-2019 20:00:00 19.71667 C 69.6667 % 14.02 C
382 19-08-2019 21:00:00 17.30833 C 74.8333 % 12.8 C
383 19-08-2019 22:00:00 16.51667 C 80.3333 % 13.12 C
384 19-08-2019 23:00:00 15.21667 C 83.5833 % 12.46 C
385 20-08-2019 00:00:00 13.975 C 86.5833 % 11.77 C
386 20-08-2019 01:00:00 13.21667 C 88.4167 % 11.35 C
387 20-08-2019 02:00:00 12.825 C 89.9167 % 11.21 C
388 20-08-2019 03:00:00 12.21667 C 90.6667 % 10.74 C
389 20-08-2019 04:00:00 11.34167 C 92.5000 % 10.17 C
390 20-08-2019 05:00:00 10.9 C 93.6667 % 9.92 C
391 20-08-2019 06:00:00 10.425 C 94.5000 % 9.58 C
392 20-08-2019 07:00:00 10.78333 C 95.3333 % 10.07 C
393 20-08-2019 08:00:00 11.425 C 95.5833 % 10.74 C
394 20-08-2019 09:00:00 12.61667 C 95.0833 % 11.85 C
395 20-08-2019 10:00:00 15.26667 C 86.0000 % 12.94 C
396 20-08-2019 11:00:00 17.375 C 73.5833 % 12.61 C
397 20-08-2019 12:00:00 18.625 C 66.8333 % 12.34 C
398 20-08-2019 13:00:00 19.525 C 62.1667 % 12.1 C
399 20-08-2019 14:00:00 20.43333 C 57.3333 % 11.72 C
400 20-08-2019 15:00:00 21.10833 C 56.2500 % 12.06 C
Sensor: Nr:Datum:Temp:Feuchte:Taupunkt:
Aussen-T/F 401 20-08-2019 16:00:00 21.41667 C 58.8333 % 13.03 C
402 20-08-2019 17:00:00 20.68333 C 64.4167 % 13.73 C
403 20-08-2019 18:00:00 20.375 C 73.9167 % 15.57 C
404 20-08-2019 19:00:00 18.88333 C 74.8333 % 14.32 C
405 20-08-2019 20:00:00 17.58333 C 75.7500 % 13.26 C
406 20-08-2019 21:00:00 16.76667 C 79.9167 % 13.28 C
407 20-08-2019 22:00:00 15.925 C 83.7500 % 13.18 C
408 20-08-2019 23:00:00 15.175 C 85.0000 % 12.67 C
409 21-08-2019 00:00:00 14.11667 C 87.1667 % 12.02 C
410 21-08-2019 01:00:00 13.55833 C 88.7500 % 11.74 C
411 21-08-2019 02:00:00 12.65833 C 90.7500 % 11.19 C
412 21-08-2019 03:00:00 11.99167 C 92.5000 % 10.81 C
413 21-08-2019 04:00:00 11.30833 C 93.5000 % 10.3 C
414 21-08-2019 05:00:00 10.73333 C 94.0000 % 9.81 C
415 21-08-2019 06:00:00 10.325 C 94.9167 % 9.55 C
416 21-08-2019 07:00:00 10.35833 C 95.3333 % 9.65 C
417 21-08-2019 08:00:00 10.85833 C 96.0000 % 10.25 C
418 21-08-2019 09:00:00 11.86667 C 96.0833 % 11.26 C
419 21-08-2019 10:00:00 13.33333 C 96.2500 % 12.75 C
420 21-08-2019 11:00:00 15.80833 C 90.0833 % 14.19 C
421 21-08-2019 12:00:00 18.54167 C 73.0000 % 13.61 C
422 21-08-2019 13:00:00 20.375 C 58.0000 % 11.84 C
423 21-08-2019 14:00:00 21.79167 C 52.3333 % 11.6 C
424 21-08-2019 15:00:00 22.95833 C 50.2500 % 12.06 C
425 21-08-2019 16:00:00 24.475 C 42.0000 % 10.73 C
Sensor: Nr:Datum:Temp:Feuchte:Taupunkt:
Aussen-T/F 426 21-08-2019 17:00:00 24.65 C 41.6667 % 10.77 C
427 21-08-2019 18:00:00 24.64167 C 44.3333 % 11.7 C
428 21-08-2019 19:00:00 23.46667 C 55.0000 % 13.91 C
429 21-08-2019 20:00:00 19.875 C 64.6667 % 13.03 C
430 21-08-2019 21:00:00 17.49167 C 66.9167 % 11.28 C
431 21-08-2019 22:00:00 16.29167 C 69.1667 % 10.64 C
432 21-08-2019 23:00:00 15.05833 C 77.6667 % 11.19 C
433 22-08-2019 00:00:00 13.475 C 83.5000 % 10.74 C
434 22-08-2019 01:00:00 12.41667 C 86.0000 % 10.14 C
435 22-08-2019 02:00:00 11.66667 C 88.5833 % 9.85 C
436 22-08-2019 03:00:00 11.125 C 90.4167 % 9.62 C
437 22-08-2019 04:00:00 10.55833 C 91.6667 % 9.26 C
438 22-08-2019 05:00:00 9.99167 C 92.6667 % 8.86 C
439 22-08-2019 06:00:00 9.71667 C 93.7500 % 8.76 C
440 22-08-2019 07:00:00 9.7 C 94.6667 % 8.89 C
441 22-08-2019 08:00:00 10.30833 C 95.3333 % 9.6 C
442 22-08-2019 09:00:00 11.525 C 96.0000 % 10.91 C
443 22-08-2019 10:00:00 13.51667 C 94.5833 % 12.66 C
444 22-08-2019 11:00:00 16.925 C 82.4167 % 13.91 C
445 22-08-2019 12:00:00 20.11667 C 65.8333 % 13.53 C
446 22-08-2019 13:00:00 22.71667 C 53.8333 % 12.89 C
447 22-08-2019 14:00:00 24.08333 C 48.0000 % 12.39 C
448 22-08-2019 15:00:00 25.89167 C 40.9167 % 11.61 C
449 22-08-2019 16:00:00 27.33333 C 37.2500 % 11.47 C
450 22-08-2019 17:00:00 28.01667 C 34.5833 % 10.95 C
Sensor: Nr:Datum:Temp:Feuchte:Taupunkt:
Aussen-T/F 451 22-08-2019 18:00:00 28.38333 C 34.8333 % 11.38 C
452 22-08-2019 19:00:00 26.06667 C 49.0000 % 14.52 C
453 22-08-2019 20:00:00 21.49167 C 58.5833 % 13.04 C
454 22-08-2019 21:00:00 18.25 C 68.9167 % 12.45 C
455 22-08-2019 22:00:00 16.40833 C 75.9167 % 12.15 C
456 22-08-2019 23:00:00 14.90833 C 79.3333 % 11.37 C
457 23-08-2019 00:00:00 13.94167 C 82.9167 % 11.09 C
458 23-08-2019 01:00:00 13.26667 C 85.0833 % 10.82 C
459 23-08-2019 02:00:00 12.775 C 86.9167 % 10.65 C
460 23-08-2019 03:00:00 11.975 C 89.1667 % 10.25 C
461 23-08-2019 04:00:00 11.56667 C 91.0833 % 10.16 C
462 23-08-2019 05:00:00 11.06667 C 91.9167 % 9.8 C
463 23-08-2019 06:00:00 10.66667 C 93.2500 % 9.62 C
464 23-08-2019 07:00:00 10.7 C 94.1667 % 9.8 C
465 23-08-2019 08:00:00 11.3 C 94.9167 % 10.52 C
466 23-08-2019 09:00:00 12.35 C 95.0000 % 11.57 C
467 23-08-2019 10:00:00 14.34167 C 94.0833 % 13.4 C
468 23-08-2019 11:00:00 17.6 C 85.0000 % 15.05 C
469 23-08-2019 12:00:00 21.16667 C 69.0000 % 15.26 C
470 23-08-2019 13:00:00 24.1 C 50.8333 % 13.28 C
471 23-08-2019 14:00:00 26.13333 C 42.2500 % 12.31 C
472 23-08-2019 15:00:00 27.85833 C 38.2500 % 12.34 C
473 23-08-2019 16:00:00 29.15 C 34.9167 % 12.09 C
474 23-08-2019 17:00:00 29.375 C 34.0000 % 11.88 C
475 23-08-2019 18:00:00 28.94167 C 33.0833 % 11.09 C
Sensor: Nr:Datum:Temp:Feuchte:Taupunkt:
Aussen-T/F 476 23-08-2019 19:00:00 27.20833 C 46.3333 % 14.7 C
477 23-08-2019 20:00:00 23.01667 C 55.5000 % 13.63 C
478 23-08-2019 21:00:00 20.16667 C 65.0000 % 13.38 C
479 23-08-2019 22:00:00 17.85 C 72.8333 % 12.91 C
480 23-08-2019 23:00:00 16.23333 C 76.7500 % 12.15 C
481 24-08-2019 00:00:00 14.96667 C 80.7500 % 11.69 C
482 24-08-2019 01:00:00 14.05833 C 84.5000 % 11.49 C
483 24-08-2019 02:00:00 13.425 C 86.5000 % 11.22 C
484 24-08-2019 03:00:00 12.7 C 88.7500 % 10.89 C
485 24-08-2019 04:00:00 12.06667 C 90.3333 % 10.53 C
486 24-08-2019 05:00:00 11.66667 C 91.7500 % 10.37 C
487 24-08-2019 06:00:00 11.425 C 92.8333 % 10.31 C
488 24-08-2019 07:00:00 11.575 C 94.0000 % 10.64 C
489 24-08-2019 08:00:00 12.06667 C 94.1667 % 11.16 C
490 24-08-2019 09:00:00 13.23333 C 94.0000 % 12.29 C
491 24-08-2019 10:00:00 15.5 C 91.5000 % 14.12 C
492 24-08-2019 11:00:00 18.88333 C 79.6667 % 15.29 C
493 24-08-2019 12:00:00 22.24167 C 66.0833 % 15.61 C
494 24-08-2019 13:00:00 25.4 C 52.1667 % 14.88 C
495 24-08-2019 14:00:00 27.05 C 43.6667 % 13.64 C
496 24-08-2019 15:00:00 28.69167 C 37.6667 % 12.84 C
497 24-08-2019 16:00:00 29.81667 C 34.4167 % 12.45 C
498 24-08-2019 17:00:00 30.29167 C 32.7500 % 12.11 C
499 24-08-2019 18:00:00 30.66667 C 34.8333 % 13.38 C
500 24-08-2019 19:00:00 28.56667 C 48.9167 % 16.78 C
Sensor: Nr:Datum:Temp:Feuchte:Taupunkt:
Aussen-T/F 501 24-08-2019 20:00:00 24.29167 C 59.2500 % 15.83 C
502 24-08-2019 21:00:00 22.01667 C 66.2500 % 15.43 C
503 24-08-2019 22:00:00 19.78333 C 74.0833 % 15.03 C
504 24-08-2019 23:00:00 18.175 C 78.3333 % 14.34 C
505 25-08-2019 00:00:00 17.35833 C 81.7500 % 14.21 C
506 25-08-2019 01:00:00 16.96667 C 82.7500 % 14.01 C
507 25-08-2019 02:00:00 16.15833 C 85.2500 % 13.68 C
508 25-08-2019 03:00:00 15.53333 C 88.0000 % 13.55 C
509 25-08-2019 04:00:00 15.19167 C 88.4167 % 13.29 C
510 25-08-2019 05:00:00 14.65833 C 89.8333 % 13.01 C
511 25-08-2019 06:00:00 14.41667 C 90.8333 % 12.94 C
512 25-08-2019 07:00:00 14.80833 C 91.4167 % 13.42 C
513 25-08-2019 08:00:00 15.84167 C 90.5000 % 14.29 C
514 25-08-2019 09:00:00 17.2 C 88.3333 % 15.25 C
515 25-08-2019 10:00:00 18.78333 C 84.6667 % 16.15 C
516 25-08-2019 11:00:00 21.64167 C 77.4167 % 17.52 C
517 25-08-2019 12:00:00 24.54167 C 70.0000 % 18.71 C
518 25-08-2019 13:00:00 26.76667 C 62.9167 % 19.11 C
519 25-08-2019 14:00:00 28.375 C 57.0000 % 19.03 C
520 25-08-2019 15:00:00 30.28333 C 51.4167 % 19.14 C
521 25-08-2019 16:00:00 31.18333 C 49.6667 % 19.41 C
522 25-08-2019 17:00:00 32.3 C 47.0000 % 19.54 C
523 25-08-2019 18:00:00 30.05 C 52.9167 % 19.39 C
524 25-08-2019 19:00:00 27.125 C 63.3333 % 19.55 C
525 25-08-2019 20:00:00 24.31667 C 71.4167 % 18.81 C
Sensor: Nr:Datum:Temp:Feuchte:Taupunkt:
Aussen-T/F 526 25-08-2019 21:00:00 22.98333 C 77.1667 % 18.77 C
527 25-08-2019 22:00:00 21.19167 C 82.4167 % 18.08 C
528 25-08-2019 23:00:00 20.10833 C 85.4167 % 17.58 C
529 26-08-2019 00:00:00 19.475 C 88.0833 % 17.45 C
530 26-08-2019 01:00:00 19.14167 C 89.1667 % 17.31 C
531 26-08-2019 02:00:00 18.53333 C 90.7500 % 16.99 C
532 26-08-2019 03:00:00 18.025 C 91.6667 % 16.65 C
533 26-08-2019 04:00:00 17.41667 C 93.0000 % 16.27 C
534 26-08-2019 05:00:00 17.14167 C 94.1667 % 16.2 C
535 26-08-2019 06:00:00 16.76667 C 94.3333 % 15.85 C
536 26-08-2019 07:00:00 16.71667 C 95.2500 % 15.95 C
537 26-08-2019 08:00:00 17.475 C 96.0000 % 16.83 C
538 26-08-2019 09:00:00 18.55 C 95.8333 % 17.87 C
539 26-08-2019 10:00:00 20.15833 C 92.4167 % 18.89 C
540 26-08-2019 11:00:00 22.95 C 83.6667 % 20.04 C
541 26-08-2019 12:00:00 25.70833 C 72.8333 % 20.46 C
542 26-08-2019 13:00:00 28.3 C 60.3333 % 19.88 C
543 26-08-2019 14:00:00 30.01667 C 52.6667 % 19.29 C
544 26-08-2019 15:00:00 30.85833 C 50.5000 % 19.38 C
545 26-08-2019 16:00:00 28.55 C 59.1667 % 19.8 C
546 26-08-2019 17:00:00 27.475 C 67.2500 % 20.86 C
547 26-08-2019 18:00:00 27.10833 C 70.0833 % 21.18 C
548 26-08-2019 19:00:00 28.06667 C 66.0000 % 21.11 C
549 26-08-2019 20:00:00 24.69167 C 73.5833 % 19.65 C
550 26-08-2019 21:00:00 22.45 C 80.5000 % 18.93 C
Sensor: Nr:Datum:Temp:Feuchte:Taupunkt:
Aussen-T/F 551 26-08-2019 22:00:00 21.09167 C 84.7500 % 18.42 C
552 26-08-2019 23:00:00 20.175 C 87.8333 % 18.09 C
553 27-08-2019 00:00:00 19.40833 C 89.9167 % 17.71 C
554 27-08-2019 01:00:00 19.01667 C 92.0000 % 17.69 C
555 27-08-2019 02:00:00 18.39167 C 92.8333 % 17.21 C
556 27-08-2019 03:00:00 17.91667 C 94.0833 % 16.95 C
557 27-08-2019 04:00:00 17.55833 C 94.2500 % 16.62 C
558 27-08-2019 05:00:00 17.15833 C 95.0000 % 16.35 C
559 27-08-2019 06:00:00 16.79167 C 95.3333 % 16.04 C
560 27-08-2019 07:00:00 16.85 C 96.0000 % 16.21 C
561 27-08-2019 08:00:00 17.325 C 96.5000 % 16.76 C
562 27-08-2019 09:00:00 18.4 C 97.0000 % 17.91 C
563 27-08-2019 10:00:00 19.78333 C 96.0833 % 19.14 C
564 27-08-2019 11:00:00 22.275 C 90.2500 % 20.6 C
565 27-08-2019 12:00:00 25.41667 C 76.2500 % 20.93 C
566 27-08-2019 13:00:00 28.99167 C 57.0000 % 19.61 C
567 27-08-2019 14:00:00 30.54167 C 49.2500 % 18.69 C
568 27-08-2019 15:00:00 31.89167 C 43.0833 % 17.78 C
569 27-08-2019 16:00:00 33.23333 C 41.6667 % 18.45 C
570 27-08-2019 17:00:00 32.29167 C 47.5000 % 19.71 C
571 27-08-2019 18:00:00 29.55833 C 57.0833 % 20.16 C
572 27-08-2019 19:00:00 27.7 C 63.8333 % 20.22 C
573 27-08-2019 20:00:00 23.50833 C 81.8333 % 20.22 C
574 27-08-2019 21:00:00 22.09167 C 84.5833 % 19.37 C
575 27-08-2019 22:00:00 21.14167 C 86.4167 % 18.78 C
Sensor: Nr:Datum:Temp:Feuchte:Taupunkt:
Aussen-T/F 576 27-08-2019 23:00:00 20.43333 C 88.1667 % 18.41 C
577 28-08-2019 00:00:00 19.9 C 90.0833 % 18.23 C
578 28-08-2019 01:00:00 19.61667 C 91.7500 % 18.24 C
579 28-08-2019 02:00:00 19.24167 C 92.6667 % 18.02 C
580 28-08-2019 03:00:00 18.71667 C 93.5000 % 17.65 C
581 28-08-2019 04:00:00 18.33333 C 93.9167 % 17.34 C
582 28-08-2019 05:00:00 17.96667 C 94.4167 % 17.06 C
583 28-08-2019 06:00:00 18.01667 C 95.0833 % 17.22 C
584 28-08-2019 07:00:00 17.85833 C 95.2500 % 17.09 C
585 28-08-2019 08:00:00 18.64167 C 95.7500 % 17.95 C
586 28-08-2019 09:00:00 19.75833 C 93.2500 % 18.64 C
587 28-08-2019 10:00:00 22.45 C 77.7500 % 18.37 C
588 28-08-2019 11:00:00 23.975 C 71.6667 % 18.54 C
589 28-08-2019 12:00:00 24.49167 C 70.8333 % 18.85 C
590 28-08-2019 13:00:00 26.54167 C 58.8333 % 17.83 C
591 28-08-2019 14:00:00 29.44167 C 50.3333 % 18.03 C
592 28-08-2019 15:00:00 30.35833 C 44.2500 % 16.83 C
593 28-08-2019 16:00:00 31.55833 C 41.3333 % 16.83 C
594 28-08-2019 17:00:00 31.80833 C 42.0000 % 17.3 C
595 28-08-2019 18:00:00 31.18333 C 45.7500 % 18.1 C
596 28-08-2019 19:00:00 27.875 C 52.1667 % 17.16 C
597 28-08-2019 20:00:00 25.59167 C 56.5833 % 16.33 C
598 28-08-2019 21:00:00 24.2 C 62.5000 % 16.59 C
599 28-08-2019 22:00:00 22.43333 C 70.0833 % 16.71 C
600 28-08-2019 23:00:00 21.38333 C 74.3333 % 16.63 C
Sensor: Nr:Datum:Temp:Feuchte:Taupunkt:
Aussen-T/F 601 29-08-2019 00:00:00 20.775 C 76.8333 % 16.56 C
602 29-08-2019 01:00:00 20.10833 C 79.0833 % 16.37 C
603 29-08-2019 02:00:00 19.2 C 82.1667 % 16.08 C
604 29-08-2019 03:00:00 18.225 C 84.8333 % 15.63 C
605 29-08-2019 04:00:00 17.53333 C 88.0000 % 15.52 C
606 29-08-2019 05:00:00 17.78333 C 89.9167 % 16.11 C
607 29-08-2019 06:00:00 18.34167 C 89.8333 % 16.64 C
608 29-08-2019 07:00:00 19.04167 C 89.2500 % 17.23 C
609 29-08-2019 08:00:00 19.89167 C 87.0833 % 17.68 C
610 29-08-2019 09:00:00 20.7 C 84.8333 % 18.06 C
611 29-08-2019 10:00:00 21.175 C 86.5000 % 18.83 C
612 29-08-2019 11:00:00 22.13333 C 82.5000 % 19.01 C
613 29-08-2019 12:00:00 23.29167 C 77.6667 % 19.17 C
614 29-08-2019 13:00:00 25.45 C 68.7500 % 19.29 C
615 29-08-2019 14:00:00 26.78333 C 64.8333 % 19.61 C
616 29-08-2019 15:00:00 27.53333 C 62.5833 % 19.75 C
617 29-08-2019 16:00:00 27.875 C 59.9167 % 19.37 C
618 29-08-2019 17:00:00 27.28333 C 60.2500 % 18.9 C
619 29-08-2019 18:00:00 26.44167 C 60.8333 % 18.27 C
620 29-08-2019 19:00:00 24.73333 C 64.6667 % 17.63 C
621 29-08-2019 20:00:00 22.80833 C 70.6667 % 17.2 C
622 29-08-2019 21:00:00 20.89167 C 76.7500 % 16.66 C
623 29-08-2019 22:00:00 20.525 C 78.8333 % 16.72 C
624 29-08-2019 23:00:00 20.48333 C 79.5833 % 16.83 C
625 30-08-2019 00:00:00 20.30833 C 79.0000 % 16.55 C
Sensor: Nr:Datum:Temp:Feuchte:Taupunkt:
Aussen-T/F 626 30-08-2019 01:00:00 19.18333 C 82.9167 % 16.21 C
627 30-08-2019 02:00:00 18.2 C 86.0833 % 15.83 C
628 30-08-2019 03:00:00 17.48333 C 88.4167 % 15.55 C
629 30-08-2019 04:00:00 16.65833 C 90.0833 % 15.03 C
630 30-08-2019 05:00:00 15.975 C 92.7500 % 14.8 C
631 30-08-2019 06:00:00 15.91667 C 93.2500 % 14.83 C
632 30-08-2019 07:00:00 15.41667 C 93.6667 % 14.4 C
633 30-08-2019 08:00:00 16.09167 C 94.4167 % 15.19 C
634 30-08-2019 09:00:00 17.96667 C 88.6667 % 16.07 C
635 30-08-2019 10:00:00 19.41667 C 81.7500 % 16.22 C
636 30-08-2019 11:00:00 20.825 C 76.0000 % 16.44 C
637 30-08-2019 12:00:00 22.16667 C 72.6667 % 17.03 C
638 30-08-2019 13:00:00 23.59167 C 68.2500 % 17.4 C
639 30-08-2019 14:00:00 25 C 60.8333 % 16.91 C
640 30-08-2019 15:00:00 26.16667 C 51.2500 % 15.31 C
641 30-08-2019 16:00:00 27.98333 C 45.6667 % 15.17 C
642 30-08-2019 17:00:00 29.66667 C 37.8333 % 13.77 C
643 30-08-2019 18:00:00 29.54167 C 37.5833 % 13.56 C
644 30-08-2019 19:00:00 27.175 C 47.0833 % 14.91 C
645 30-08-2019 20:00:00 23 C 55.5833 % 13.64 C
646 30-08-2019 21:00:00 20.38333 C 65.0833 % 13.61 C
647 30-08-2019 22:00:00 18.64167 C 72.5833 % 13.62 C
648 30-08-2019 23:00:00 17.38333 C 77.2500 % 13.36 C
649 31-08-2019 00:00:00 16.65 C 81.0000 % 13.38 C
650 31-08-2019 01:00:00 15.825 C 84.1667 % 13.16 C
Sensor: Nr:Datum:Temp:Feuchte:Taupunkt:
Aussen-T/F 651 31-08-2019 02:00:00 15.21667 C 86.2500 % 12.94 C
652 31-08-2019 03:00:00 14.75 C 88.5000 % 12.87 C
653 31-08-2019 04:00:00 14.31667 C 90.1667 % 12.73 C
654 31-08-2019 05:00:00 14.15 C 91.5833 % 12.8 C
655 31-08-2019 06:00:00 14.1 C 92.0000 % 12.82 C
656 31-08-2019 07:00:00 14.10833 C 92.6667 % 12.94 C
657 31-08-2019 08:00:00 14.76667 C 92.6667 % 13.59 C
658 31-08-2019 09:00:00 15.89167 C 92.2500 % 14.64 C
659 31-08-2019 10:00:00 17.8 C 89.0000 % 15.96 C
660 31-08-2019 11:00:00 20.6 C 81.2500 % 17.27 C
661 31-08-2019 12:00:00 23.625 C 73.0833 % 18.52 C
662 31-08-2019 13:00:00 28.49167 C 54.5833 % 18.45 C
663 31-08-2019 14:00:00 30.36667 C 47.3333 % 17.9 C
664 31-08-2019 15:00:00 31.43333 C 43.3333 % 17.46 C
665 31-08-2019 16:00:00 32.48333 C 42.3333 % 18.03 C
666 31-08-2019 17:00:00 33.89167 C 39.8333 % 18.32 C
667 31-08-2019 18:00:00 33.71667 C 40.0000 % 18.23 C
668 31-08-2019 19:00:00 31.13333 C 48.8333 % 19.1 C
669 31-08-2019 20:00:00 25.89167 C 60.0000 % 17.53 C
670 31-08-2019 21:00:00 24.875 C 62.0000 % 17.09 C
671 31-08-2019 22:00:00 24.58333 C 70.5000 % 18.86 C
672 31-08-2019 23:00:00 20.69167 C 87.5833 % 18.56 C
673 01-09-2019 00:00:00 19.66667 C 91.2500 % 18.2 C
674 01-09-2019 01:00:00 19.34167 C 90.9167 % 17.82 C
675 01-09-2019 02:00:00 19.10833 C 85.9167 % 16.7 C
Sensor: Nr:Datum:Temp:Feuchte:Taupunkt:
Aussen-T/F 676 01-09-2019 03:00:00 18.325 C 84.0833 % 15.59 C
677 01-09-2019 04:00:00 17.88333 C 80.1667 % 14.42 C
678 01-09-2019 05:00:00 17.84167 C 79.0833 % 14.17 C
679 01-09-2019 06:00:00 17.30833 C 79.5833 % 13.75 C
680 01-09-2019 07:00:00 16.1 C 85.6667 % 13.7 C
681 01-09-2019 08:00:00 17.48333 C 82.5833 % 14.49 C
682 01-09-2019 09:00:00 18.13333 C 80.5000 % 14.73 C
683 01-09-2019 10:00:00 19.10833 C 76.5000 % 14.88 C
684 01-09-2019 11:00:00 20.025 C 74.2500 % 15.3 C
685 01-09-2019 12:00:00 20.05 C 74.8333 % 15.45 C
686 01-09-2019 13:00:00 19.69167 C 77.9167 % 15.73 C
687 01-09-2019 14:00:00 20.075 C 75.6667 % 15.65 C
688 01-09-2019 15:00:00 20.61667 C 71.6667 % 15.32 C
689 01-09-2019 16:00:00 20.38333 C 68.0000 % 14.28 C
690 01-09-2019 17:00:00 19.975 C 65.4167 % 13.3 C
691 01-09-2019 18:00:00 20.75833 C 60.5833 % 12.86 C
692 01-09-2019 19:00:00 20.60833 C 57.9167 % 12.04 C
693 01-09-2019 20:00:00 18.38333 C 66.5000 % 12.04 C
694 01-09-2019 21:00:00 16.68333 C 72.3333 % 11.69 C
695 01-09-2019 22:00:00 16.39167 C 71.4167 % 11.21 C
696 01-09-2019 23:00:00 15.59167 C 75.0000 % 11.18 C
697 02-09-2019 00:00:00 14.44167 C 75.5000 % 10.17 C
698 02-09-2019 01:00:00 13.29167 C 77.8333 % 9.51 C
699 02-09-2019 02:00:00 13.3 C 80.2500 % 9.97 C
700 02-09-2019 03:00:00 13.025 C 82.5000 % 10.12 C
Sensor: Nr:Datum:Temp:Feuchte:Taupunkt:
Aussen-T/F 701 02-09-2019 04:00:00 12 C 83.9167 % 9.37 C
702 02-09-2019 05:00:00 11.21667 C 85.9167 % 8.95 C
703 02-09-2019 06:00:00 10.15 C 89.0833 % 8.43 C
704 02-09-2019 07:00:00 9.73333 C 91.6667 % 8.44 C
705 02-09-2019 08:00:00 10.03333 C 92.9167 % 8.94 C
706 02-09-2019 09:00:00 10.83333 C 92.5833 % 9.68 C
707 02-09-2019 10:00:00 12.85833 C 88.0833 % 10.94 C
708 02-09-2019 11:00:00 16.2 C 66.4167 % 9.94 C
709 02-09-2019 12:00:00 17.53333 C 56.5000 % 8.8 C
710 02-09-2019 13:00:00 18.70833 C 49.6667 % 7.98 C
711 02-09-2019 14:00:00 19.83333 C 46.2500 % 7.97 C
712 02-09-2019 15:00:00 20.175 C 45.2500 % 7.96 C
713 02-09-2019 16:00:00 21.80833 C 41.5833 % 8.19 C
714 02-09-2019 17:00:00 23.09167 C 37.9167 % 7.98 C
715 02-09-2019 18:00:00 22.99167 C 37.3333 % 7.66 C
716 02-09-2019 19:00:00 20.575 C 46.7500 % 8.8 C
717 02-09-2019 20:00:00 16.9 C 56.3333 % 8.16 C
718 02-09-2019 21:00:00 15.39167 C 60.6667 % 7.84 C
719 02-09-2019 22:00:00 13.475 C 70.1667 % 8.15 C
720 02-09-2019 23:00:00 12.98333 C 72.7500 % 8.21 C
721 03-09-2019 00:00:00 12.39167 C 74.8333 % 8.06 C
722 03-09-2019 01:00:00 12.125 C 76.5000 % 8.12 C
723 03-09-2019 02:00:00 10.89167 C 79.0833 % 7.41 C
724 03-09-2019 03:00:00 10.175 C 81.5833 % 7.17 C
725 03-09-2019 04:00:00 10.08333 C 83.8333 % 7.48 C
Sensor: Nr:Datum:Temp:Feuchte:Taupunkt:
Aussen-T/F 726 03-09-2019 05:00:00 9.45 C 85.0833 % 7.07 C
727 03-09-2019 06:00:00 8.91667 C 87.0833 % 6.89 C
728 03-09-2019 07:00:00 8.65833 C 88.8333 % 6.92 C
729 03-09-2019 08:00:00 9.08333 C 89.7500 % 7.49 C
730 03-09-2019 09:00:00 10.375 C 88.9167 % 8.63 C
731 03-09-2019 10:00:00 13.225 C 81.5833 % 10.15 C
732 03-09-2019 11:00:00 17.34167 C 63.2500 % 10.29 C
733 03-09-2019 12:00:00 19.95833 C 53.5000 % 10.24 C
734 03-09-2019 13:00:00 21.25 C 49.6667 % 10.32 C
735 03-09-2019 14:00:00 22.64167 C 45.5000 % 10.28 C
736 03-09-2019 15:00:00 23.75 C 45.8333 % 11.39 C
737 03-09-2019 16:00:00 23.58333 C 49.8333 % 12.51 C
738 03-09-2019 17:00:00 23.65 C 50.9167 % 12.9 C
739 03-09-2019 18:00:00 23.225 C 52.5833 % 13 C
740 03-09-2019 19:00:00 21.11667 C 58.7500 % 12.73 C
741 03-09-2019 20:00:00 18.86667 C 65.9167 % 12.36 C
742 03-09-2019 21:00:00 16.325 C 75.0000 % 11.89 C
743 03-09-2019 22:00:00 15.33333 C 79.2500 % 11.76 C
744 03-09-2019 23:00:00 14.05 C 83.3333 % 11.27 C

Maximal/Minimal-Werte vom 04.08.2019 - 03.09.2019

Sensor Min Max Avg
Temp
(Aussen-T/F)
8.5 °C
03-09-2019  07:00:00
34.3 °C
27-08-2019  17:00:00
19.13 °C
Feuchte
(Aussen-T/F)
30 %
24-08-2019  18:00:00
98 %
18-08-2019  09:25:00
77.43 %
Taupunkt
(Aussen-T/F)
6.89 C
03-09-2019  06:00:00
22.05 C
09-08-2019  17:00:00
14.54 C

Die Daten stammen von einer Davis Vantage Pro 2 Wetter-Station und werden unter Linux mit der Software wview2wettercgi und aufbereitet. Alle Angaben erfolgen ohne Gewähr für ihre Vollständigkeit oder Richtigkeit.
Kontakt: Rainer Krienke krienke@uni-koblenz.de . Meine Webseiten an der Uni Koblenz oder privat.
Version: $Revision: 0.78 $